Bei Facebook empfehlenBei Twitter postenGoogle plusPinterest

Das Wetter im Erzgebirge am 21.02.2016

Wetter und Klima am 21.02.2016 Holzhau im Erzgebirge (630m ü.NN)
Letzte gemessene Temperatur und Uhrzeit der Messung23:45:00 Uhr8.30 °C
Temperatur (Maximum / Höchstwert) und Uhrzeit der Messung20:30:00 Uhr9.10 °C
Temperatur (Minimum / Tiefstwert) und Uhrzeit der Messung00:00:002.60 °C
Errechneter Absolutwert der Temperaturschwankungen zwischen Tmin und Tmax des Tages6.50 K
Errechnete Tagesmitteltemperatur6.76146 °C
Gesamt - Niederschlag des Tages (in flüssiger Form)10.36 Liter / m²
Luftdruck (Maximum / Höchstwert) und Zeitpunkt der Messung11:15:00 Uhr1007.10 hPa
Luftdruck (Minimum / Tiefstwert) und Zeitpunkt der Messung03:45:00 Uhr1003.30 hPa
Errechneter Absolutwert der Luftdruckschwankungen des Tages3.80 hPa
Höchste gemessene Windgeschwindigkeit und Uhrzeit der Messung07:00:00 Uhr183.60 km/h
Errechnete Windhäufigkeit in Relation zu den Messwerten des Tages83.33333 %
Niedrigste Windkühle (Windchill) und Zeitpunkt der Messung07:00:00 Uhr-2.50 °C
Taupunkt (Maximum / Höchstwert) und Uhrzeit der Messung19:45:00 Uhr8.30 °C
Taupunkt (Minimum / Tiefstwert) und Uhrzeit der Messung00:00:001.70 °C
Anzahl der automatisch eingelesenen Messwerte 96

Detaillierte Wetter- und Klima- Messwerte für den 21.02.2016 in Holzhau im Erzgebirge (630m ü.NN)
ZeitTemperaturLuftdruckRel. LuftfeuchteWindWindrichtungWindchillTaupunktNiederschlag l/m²
23:45:008.30 °C1003.60 hPa92.00 %7.10 °C10.36
23:30:008.40 °C1003.60 hPa92.00 %7.20 °C10.36
23:15:008.50 °C1004.00 hPa92.00 %11.52 km/hSSW6.60 °C7.30 °C10.36
23:00:008.60 °C1003.90 hPa92.00 %9.00 km/hNNW7.20 °C7.40 °C10.36
22:45:008.50 °C1003.90 hPa92.00 %15.12 km/hSW6.00 °C7.30 °C10.36
22:30:008.50 °C1003.90 hPa93.00 %2.16 km/hW8.50 °C7.40 °C10.36
22:15:008.50 °C1003.80 hPa93.00 %23.04 km/hSSW5.20 °C7.40 °C10.36
22:00:008.60 °C1003.90 hPa93.00 %11.16 km/hW6.80 °C7.50 °C10.36
21:45:008.80 °C1003.90 hPa93.00 %9.00 km/hW7.40 °C7.70 °C10.36
21:30:008.90 °C1003.80 hPa93.00 %11.88 km/hW7.00 °C7.80 °C10.36
21:15:008.90 °C1004.20 hPa94.00 %21.60 km/hWNW5.80 °C8.00 °C10.36
21:00:008.90 °C1004.50 hPa94.00 %3.60 km/hWNW8.90 °C8.00 °C10.36
20:45:008.90 °C1004.40 hPa94.00 %9.36 km/hW7.40 °C8.00 °C10.36
20:30:009.10 °C1004.40 hPa94.00 %5.04 km/hNW8.70 °C8.20 °C10.36
20:15:009.10 °C1004.60 hPa94.00 %19.80 km/hNW6.30 °C8.20 °C10.36
20:00:009.00 °C1004.70 hPa94.00 %8.10 °C10.36
19:45:009.10 °C1004.50 hPa95.00 %16.56 km/hWNW6.60 °C8.30 °C10.36
19:30:008.90 °C1004.30 hPa96.00 %16.20 km/hNW6.40 °C8.30 °C10.36
19:15:008.80 °C1004.40 hPa95.00 %8.28 km/hWSW7.50 °C8.00 °C10.36
19:00:008.50 °C1004.50 hPa96.00 %11.52 km/hWSW6.60 °C7.90 °C10.36
18:45:008.40 °C1004.50 hPa96.00 %8.64 km/hWNW7.00 °C7.80 °C10.36
18:30:008.40 °C1004.70 hPa96.00 %9.72 km/hWNW6.80 °C7.80 °C10.36
18:15:008.30 °C1004.60 hPa96.00 %14.04 km/hWSW5.90 °C7.70 °C10.36
18:00:008.30 °C1004.80 hPa96.00 %22.32 km/hNW5.00 °C7.70 °C10.36
17:45:008.10 °C1004.80 hPa96.00 %6.12 km/hWNW7.30 °C7.50 °C10.36
17:30:007.90 °C1004.90 hPa97.00 %14.76 km/hWNW5.40 °C7.50 °C10.36
17:15:007.80 °C1005.00 hPa96.00 %14.40 km/hW5.30 °C7.20 °C10.36
17:00:007.80 °C1005.30 hPa96.00 %3.96 km/hW7.80 °C7.20 °C10.36
16:45:007.70 °C1005.20 hPa96.00 %16.56 km/hWSW4.90 °C7.10 °C10.36
16:30:007.60 °C1005.20 hPa96.00 %11.16 km/hW5.60 °C7.00 °C10.36
16:15:007.60 °C1005.20 hPa96.00 %10.44 km/hWSW5.70 °C7.00 °C10.36
16:00:007.60 °C1005.30 hPa96.00 %3.96 km/hW7.60 °C7.00 °C10.36
15:45:007.70 °C1005.40 hPa96.00 %2.52 km/hW7.70 °C7.10 °C10.36
15:30:007.80 °C1005.70 hPa96.00 %7.20 km/hWNW6.60 °C7.20 °C10.36
15:15:007.90 °C1005.70 hPa96.00 %11.52 km/hW5.90 °C7.30 °C10.36
15:00:007.80 °C1005.60 hPa96.00 %6.12 km/hW6.90 °C7.20 °C10.36
14:45:007.80 °C1005.70 hPa96.00 %3.24 km/hWNW7.80 °C7.20 °C9.85
14:30:007.60 °C1005.80 hPa96.00 %11.16 km/hWNW5.60 °C7.00 °C9.85
14:15:007.60 °C1005.90 hPa96.00 %10.08 km/hWNW5.70 °C7.00 °C9.85
14:00:007.60 °C1006.00 hPa96.00 %4.68 km/hW7.60 °C7.00 °C9.33
13:45:007.60 °C1006.10 hPa96.00 %7.56 km/hW6.30 °C7.00 °C9.33
13:30:007.60 °C1006.30 hPa96.00 %3.60 km/hWNW7.60 °C7.00 °C8.81
13:15:007.60 °C1006.20 hPa96.00 %7.92 km/hWSW6.20 °C7.00 °C8.81
13:00:007.40 °C1006.40 hPa96.00 %5.04 km/hW6.80 °C6.80 °C8.29
12:45:007.10 °C1006.20 hPa96.00 %9.36 km/hWNW5.30 °C6.50 °C7.77
12:30:006.40 °C1006.40 hPa96.00 %12.96 km/hWNW3.80 °C5.80 °C7.77
12:15:006.10 °C1006.70 hPa96.00 %9.00 km/hSW4.20 °C5.50 °C7.77
12:00:005.90 °C1006.60 hPa96.00 %4.32 km/hWNW5.90 °C5.30 °C7.77
11:45:005.90 °C1006.80 hPa96.00 %5.30 °C7.77
11:30:005.60 °C1007.00 hPa96.00 %8.28 km/hWNW3.80 °C5.00 °C7.77
11:15:005.40 °C1007.10 hPa96.00 %4.80 °C7.26
11:00:005.30 °C1006.90 hPa96.00 %4.70 °C7.26
10:45:005.30 °C1006.90 hPa96.00 %3.24 km/hWNW5.30 °C4.70 °C7.26
10:30:005.30 °C1006.70 hPa95.00 %4.60 °C7.26
10:15:005.40 °C1006.90 hPa96.00 %7.92 km/hNW3.60 °C4.80 °C7.26
10:00:005.50 °C1007.00 hPa95.00 %9.36 km/hWNW3.40 °C4.80 °C6.74
09:45:005.60 °C1006.90 hPa95.00 %5.76 km/hWSW4.50 °C4.90 °C6.74
09:30:005.80 °C1006.40 hPa95.00 %3.24 km/hW5.80 °C5.10 °C6.22
09:15:005.90 °C1006.40 hPa95.00 %5.20 °C5.70
09:00:005.80 °C1006.30 hPa95.00 %8.64 km/hWSW3.90 °C5.10 °C5.18
08:45:005.80 °C1006.10 hPa95.00 %5.10 °C5.18
08:30:006.10 °C1005.90 hPa95.00 %5.40 °C4.67
08:15:006.80 °C1005.90 hPa95.00 %3.60 km/hW6.80 °C6.10 °C3.11
08:00:006.90 °C1005.20 hPa95.00 %6.20 °C2.08
07:45:006.90 °C1005.00 hPa95.00 %2.52 km/hW6.90 °C6.20 °C1.56
07:30:007.00 °C1004.60 hPa95.00 %6.30 °C1.56
07:15:007.10 °C1004.40 hPa95.00 %14.76 km/hNW4.40 °C6.40 °C1.56
07:00:006.90 °C1004.40 hPa95.00 %183.60 km/hSW-2.50 °C6.20 °C1.56
06:45:006.70 °C1004.20 hPa95.00 %24.84 km/hWSW2.70 °C6.00 °C1.56
06:30:006.60 °C1004.00 hPa95.00 %16.20 km/hWNW3.60 °C5.90 °C1.56
06:15:006.40 °C1003.90 hPa95.00 %9.72 km/hNW4.40 °C5.70 °C1.56
06:00:006.40 °C1003.80 hPa95.00 %7.20 km/hW5.00 °C5.70 °C1.56
05:45:006.50 °C1003.80 hPa95.00 %7.20 km/hSW5.10 °C5.80 °C1.56
05:30:006.50 °C1004.00 hPa95.00 %10.80 km/hSW4.30 °C5.80 °C1.56
05:15:006.60 °C1003.80 hPa95.00 %10.44 km/hWSW4.50 °C5.90 °C1.56
05:00:006.40 °C1003.70 hPa95.00 %13.68 km/hNW3.70 °C5.70 °C1.56
04:45:006.20 °C1003.50 hPa95.00 %5.76 km/hW5.20 °C5.50 °C1.56
04:30:006.10 °C1003.60 hPa95.00 %9.36 km/hW4.10 °C5.40 °C1.56
04:15:006.10 °C1003.50 hPa95.00 %11.52 km/hWNW3.70 °C5.40 °C1.56
04:00:005.80 °C1003.50 hPa95.00 %8.64 km/hW3.90 °C5.10 °C1.56
03:45:005.60 °C1003.30 hPa95.00 %10.44 km/hWSW3.30 °C4.90 °C1.04
03:30:005.40 °C1003.60 hPa95.00 %8.28 km/hWNW3.50 °C4.70 °C1.04
03:15:005.20 °C1003.40 hPa95.00 %2.52 km/hW5.20 °C4.50 °C1.04
03:00:004.90 °C1003.40 hPa95.00 %4.20 °C1.04
02:45:004.80 °C1003.70 hPa95.00 %11.88 km/hW2.00 °C4.10 °C1.04
02:30:004.60 °C1003.80 hPa95.00 %14.04 km/hW1.40 °C3.90 °C1.04
02:15:004.40 °C1003.60 hPa95.00 %2.88 km/hWSW4.40 °C3.70 °C1.04
02:00:004.20 °C1004.00 hPa95.00 %7.92 km/hWNW2.20 °C3.50 °C1.04
01:45:003.80 °C1003.70 hPa95.00 %9.00 km/hSW1.50 °C3.10 °C1.04
01:30:003.50 °C1003.90 hPa95.00 %9.00 km/hW1.10 °C2.80 °C1.04
01:15:003.40 °C1003.90 hPa95.00 %2.70 °C1.04
01:00:003.30 °C1004.20 hPa95.00 %2.60 °C1.04
00:45:003.30 °C1004.40 hPa95.00 %3.60 km/hSSW3.30 °C2.60 °C0.52
00:30:002.90 °C1004.50 hPa94.00 %2.00 °C0.52
00:15:002.80 °C1004.90 hPa94.00 %2.16 km/hSW2.80 °C1.90 °C 
00:00:002.60 °C1005.00 hPa94.00 %8.64 km/hNW0.10 °C1.70 °C 

Permanenter Link zu dieser Seite: Wetter im Erzgebirge am 21.02.2016
Performance-Info: Die Erstellung der Seite / Statistik(en) / Tabelle(n) erforderte 5 Datenbankserver-Abfrage(n) und dauerte 102 Millisekunden. (Dieser Messwert ist von der Gesamt-Auslastung des Servers abhängig.)
Erzgebirge - Wetter | Erzgebirge - Wetter (Mobilgeräte) | Komplette Klimadatenbank